6A5 weather

Warf Airport
Reidsville, North Carolina, United States

Public forecast

Using degrees Fahrenheit for public forecast. Weather courtesy of forecast.io.

METAR (pilot weather report)

Closest report is Rockingham County NC Shiloh Airport, 10.0 nm (18.5 km) NW. Retrieved 2019/07/20 04:35 UTC (0 seconds ago):

KSIF 200435Z AUTO 26/24 A3001 RMK AO2 T02560238 PWINO

TAF (pilot weather forecast)

Forecast is more than 12 hours old.

Closest forecast is Piedmont Triad International Airport, 17.2 nm (31.9 km) SW. Retrieved 2019/07/19 00:40 UTC (1 day ago):

TAF KGSO 192338Z 2000/2024 25004KT P6SM SCT060 BKN200